sensor_id;sensor_type;location;lat;lon;timestamp;pressure;altitude;pressure_sealevel;temperature;humidity
7532;BME280;3807;49.030;8.714;2023-09-30T02:51:27;100201.66;;;20.43;61.81
7532;BME280;3807;49.030;8.714;2023-09-30T02:53:54;100202.69;;;20.41;61.86
7532;BME280;3807;49.030;8.714;2023-09-30T02:56:20;100202.69;;;20.41;61.80
7532;BME280;3807;49.030;8.714;2023-09-30T02:58:48;100195.91;;;20.38;61.88
7532;BME280;3807;49.030;8.714;2023-09-30T03:01:19;100203.69;;;20.38;61.95
7532;BME280;3807;49.030;8.714;2023-09-30T03:03:46;100212.28;;;20.39;61.89
7532;BME280;3807;49.030;8.714;2023-09-30T03:06:15;100209.69;;;20.39;61.88
7532;BME280;3807;49.030;8.714;2023-09-30T03:08:42;100205.81;;;20.32;61.99
7532;BME280;3807;49.030;8.714;2023-09-30T03:11:09;100209.97;;;20.34;61.94
7532;BME280;3807;49.030;8.714;2023-09-30T03:13:34;100209.16;;;20.34;61.92
7532;BME280;3807;49.030;8.714;2023-09-30T03:16:00;100211.81;;;20.32;61.95
7532;BME280;3807;49.030;8.714;2023-09-30T03:18:26;100214.38;;;20.32;61.95
7532;BME280;3807;49.030;8.714;2023-09-30T03:21:12;100217.16;;;20.29;62.09
7532;BME280;3807;49.030;8.714;2023-09-30T03:23:41;100218.91;;;20.29;62.07
7532;BME280;3807;49.030;8.714;2023-09-30T03:26:07;100230.09;;;20.29;62.08
7532;BME280;3807;49.030;8.714;2023-09-30T03:28:45;100221.50;;;20.29;62.16
7532;BME280;3807;49.030;8.714;2023-09-30T03:31:11;100210.63;;;20.23;62.17
7532;BME280;3807;49.030;8.714;2023-09-30T03:33:39;100210.50;;;20.25;62.11
7532;BME280;3807;49.030;8.714;2023-09-30T03:36:08;100202.84;;;20.23;62.21
7532;BME280;3807;49.030;8.714;2023-09-30T03:38:36;100194.44;;;20.20;62.22
7532;BME280;3807;49.030;8.714;2023-09-30T03:41:04;100192.50;;;20.23;62.04
7532;BME280;3807;49.030;8.714;2023-09-30T03:43:33;100200.34;;;20.22;62.13
7532;BME280;3807;49.030;8.714;2023-09-30T03:46:03;100201.28;;;20.21;62.24
7532;BME280;3807;49.030;8.714;2023-09-30T03:48:31;100203.22;;;20.17;62.15
7532;BME280;3807;49.030;8.714;2023-09-30T03:51:10;100206.56;;;20.19;62.21
7532;BME280;3807;49.030;8.714;2023-09-30T03:53:47;100204.03;;;20.18;62.17
7532;BME280;3807;49.030;8.714;2023-09-30T03:56:20;100208.47;;;20.16;62.19
7532;BME280;3807;49.030;8.714;2023-09-30T04:20:43;100224.06;;;20.00;62.56
7532;BME280;3807;49.030;8.714;2023-09-30T05:37:37;100269.97;;;19.49;63.01
7532;BME280;3807;49.030;8.714;2023-09-30T05:43:50;100264.41;;;19.41;63.04
7532;BME280;3807;49.030;8.714;2023-09-30T05:53:02;100254.50;;;19.33;63.12
7532;BME280;3807;49.030;8.714;2023-09-30T05:55:37;100275.34;;;19.30;63.13
7532;BME280;3807;49.030;8.714;2023-09-30T05:58:33;100284.00;;;19.29;63.18
7532;BME280;3807;49.030;8.714;2023-09-30T06:02:07;100303.84;;;19.28;63.20
7532;BME280;3807;49.030;8.714;2023-09-30T06:04:32;100303.91;;;19.27;63.12
7532;BME280;3807;49.030;8.714;2023-09-30T06:07:10;100305.09;;;19.21;63.19
7532;BME280;3807;49.030;8.714;2023-09-30T06:10:03;100308.50;;;19.22;63.09
7532;BME280;3807;49.030;8.714;2023-09-30T06:16:04;100299.25;;;19.18;63.16
7532;BME280;3807;49.030;8.714;2023-09-30T06:18:57;100301.41;;;19.10;63.12
7532;BME280;3807;49.030;8.714;2023-09-30T06:21:33;100302.81;;;19.15;63.18
7532;BME280;3807;49.030;8.714;2023-09-30T06:24:08;100303.66;;;19.16;63.10
7532;BME280;3807;49.030;8.714;2023-09-30T06:26:53;100298.66;;;19.13;63.14
7532;BME280;3807;49.030;8.714;2023-09-30T06:29:48;100302.88;;;18.98;63.50
7532;BME280;3807;49.030;8.714;2023-09-30T06:32:25;100316.22;;;19.06;63.20
7532;BME280;3807;49.030;8.714;2023-09-30T06:38:51;100312.81;;;19.06;63.11
7532;BME280;3807;49.030;8.714;2023-09-30T06:48:24;100317.28;;;19.02;63.24
7532;BME280;3807;49.030;8.714;2023-09-30T06:51:18;100318.28;;;18.99;63.33
7532;BME280;3807;49.030;8.714;2023-09-30T06:57:35;100309.97;;;18.94;63.25
7532;BME280;3807;49.030;8.714;2023-09-30T07:00:05;100311.56;;;18.97;63.20
7532;BME280;3807;49.030;8.714;2023-09-30T07:02:54;100310.69;;;18.96;63.18
7532;BME280;3807;49.030;8.714;2023-09-30T07:06:06;100320.12;;;18.97;63.08
7532;BME280;3807;49.030;8.714;2023-09-30T07:08:57;100327.09;;;18.95;63.20
7532;BME280;3807;49.030;8.714;2023-09-30T07:14:36;100339.94;;;18.97;63.11
7532;BME280;3807;49.030;8.714;2023-09-30T07:20:36;100341.09;;;18.91;63.23
7532;BME280;3807;49.030;8.714;2023-09-30T07:35:32;100357.25;;;18.95;63.14
7532;BME280;3807;49.030;8.714;2023-09-30T07:41:43;100358.63;;;18.85;63.38
7532;BME280;3807;49.030;8.714;2023-09-30T07:44:15;100381.62;;;18.89;63.29
7532;BME280;3807;49.030;8.714;2023-09-30T07:46:40;100375.41;;;18.93;63.20
7532;BME280;3807;49.030;8.714;2023-09-30T08:47:24;100346.09;;;18.94;63.21
7532;BME280;3807;49.030;8.714;2023-09-30T09:02:14;100362.72;;;18.89;63.44
7532;BME280;3807;49.030;8.714;2023-09-30T09:04:41;100372.50;;;18.99;63.03
7532;BME280;3807;49.030;8.714;2023-09-30T09:07:18;100372.66;;;18.96;63.16
7532;BME280;3807;49.030;8.714;2023-09-30T09:13:05;100359.59;;;18.99;63.08
7532;BME280;3807;49.030;8.714;2023-09-30T09:16:08;100361.09;;;19.03;62.86
7532;BME280;3807;49.030;8.714;2023-09-30T09:19:15;100367.69;;;19.09;62.81
7532;BME280;3807;49.030;8.714;2023-09-30T09:22:06;100360.34;;;19.01;62.69
7532;BME280;3807;49.030;8.714;2023-09-30T09:31:43;100348.78;;;19.09;62.79
7532;BME280;3807;49.030;8.714;2023-09-30T09:34:39;100346.63;;;19.17;62.59
7532;BME280;3807;49.030;8.714;2023-09-30T09:40:33;100349.06;;;19.20;62.56
7532;BME280;3807;49.030;8.714;2023-09-30T09:45:51;100348.59;;;19.29;62.28
7532;BME280;3807;49.030;8.714;2023-09-30T09:48:20;100347.66;;;19.30;62.27
7532;BME280;3807;49.030;8.714;2023-09-30T09:50:45;100342.50;;;19.30;62.23
7532;BME280;3807;49.030;8.714;2023-09-30T10:05:04;100332.41;;;19.41;61.84
7532;BME280;3807;49.030;8.714;2023-09-30T10:08:08;100330.34;;;19.48;61.63
7532;BME280;3807;49.030;8.714;2023-09-30T10:10:53;100324.69;;;19.57;61.37
7532;BME280;3807;49.030;8.714;2023-09-30T10:13:54;100326.44;;;19.57;61.38
7532;BME280;3807;49.030;8.714;2023-09-30T10:23:21;100328.84;;;19.75;60.96
7532;BME280;3807;49.030;8.714;2023-09-30T10:26:15;100314.16;;;19.92;60.32
7532;BME280;3807;49.030;8.714;2023-09-30T10:28:46;100311.75;;;19.89;60.44
7532;BME280;3807;49.030;8.714;2023-09-30T10:31:22;100317.12;;;20.00;60.61
7532;BME280;3807;49.030;8.714;2023-09-30T10:34:19;100317.59;;;20.22;60.22
7532;BME280;3807;49.030;8.714;2023-09-30T10:40:10;100317.69;;;20.35;59.82
7532;BME280;3807;49.030;8.714;2023-09-30T10:42:51;100316.69;;;20.38;59.18
7532;BME280;3807;49.030;8.714;2023-09-30T10:50:58;100321.47;;;20.88;57.93
7532;BME280;3807;49.030;8.714;2023-09-30T10:53:36;100307.28;;;20.96;58.11
7532;BME280;3807;49.030;8.714;2023-09-30T10:56:08;100296.91;;;20.96;57.78
7532;BME280;3807;49.030;8.714;2023-09-30T10:59:02;100299.72;;;21.20;57.36
7532;BME280;3807;49.030;8.714;2023-09-30T11:01:56;100297.13;;;21.20;58.25
7532;BME280;3807;49.030;8.714;2023-09-30T11:04:22;100297.69;;;21.25;58.48
7532;BME280;3807;49.030;8.714;2023-09-30T11:07:17;100295.41;;;21.34;58.18
7532;BME280;3807;49.030;8.714;2023-09-30T11:09:48;100300.25;;;21.53;57.42
7532;BME280;3807;49.030;8.714;2023-09-30T11:12:26;100297.16;;;21.61;57.54
7532;BME280;3807;49.030;8.714;2023-09-30T11:14:59;100291.84;;;21.50;57.84
7532;BME280;3807;49.030;8.714;2023-09-30T11:17:30;100294.37;;;21.64;56.79
7532;BME280;3807;49.030;8.714;2023-09-30T11:20:02;100293.41;;;21.79;56.89
7532;BME280;3807;49.030;8.714;2023-09-30T11:22:31;100282.97;;;21.94;56.29
7532;BME280;3807;49.030;8.714;2023-09-30T11:25:00;100286.62;;;22.04;56.36
7532;BME280;3807;49.030;8.714;2023-09-30T11:27:40;100288.59;;;22.13;56.17
7532;BME280;3807;49.030;8.714;2023-09-30T11:33:08;100292.59;;;22.19;56.26
7532;BME280;3807;49.030;8.714;2023-09-30T11:35:39;100294.28;;;22.32;55.76
7532;BME280;3807;49.030;8.714;2023-09-30T11:38:18;100282.53;;;22.40;55.63
7532;BME280;3807;49.030;8.714;2023-09-30T11:40:59;100287.44;;;22.57;54.78
7532;BME280;3807;49.030;8.714;2023-09-30T11:43:57;100294.91;;;22.62;54.69
7532;BME280;3807;49.030;8.714;2023-09-30T11:46:21;100291.25;;;22.77;54.87
7532;BME280;3807;49.030;8.714;2023-09-30T11:48:58;100290.03;;;22.95;53.87
7532;BME280;3807;49.030;8.714;2023-09-30T11:51:48;100291.13;;;22.91;55.15
7532;BME280;3807;49.030;8.714;2023-09-30T11:54:17;100285.94;;;23.04;53.94
7532;BME280;3807;49.030;8.714;2023-09-30T11:57:04;100290.22;;;23.05;54.20
7532;BME280;3807;49.030;8.714;2023-09-30T11:59:55;100299.44;;;23.09;53.76
7532;BME280;3807;49.030;8.714;2023-09-30T12:02:28;100292.22;;;23.25;53.20
7532;BME280;3807;49.030;8.714;2023-09-30T12:05:27;100289.41;;;23.28;53.66
7532;BME280;3807;49.030;8.714;2023-09-30T12:08:09;100290.94;;;23.44;53.38
7532;BME280;3807;49.030;8.714;2023-09-30T12:10:41;100288.63;;;23.39;54.46
7532;BME280;3807;49.030;8.714;2023-09-30T12:15:53;100278.03;;;23.66;52.08
7532;BME280;3807;49.030;8.714;2023-09-30T12:18:19;100273.59;;;23.68;51.92
7532;BME280;3807;49.030;8.714;2023-09-30T12:21:11;100278.25;;;23.87;51.65
7532;BME280;3807;49.030;8.714;2023-09-30T12:24:09;100276.97;;;23.93;51.57
7532;BME280;3807;49.030;8.714;2023-09-30T12:26:52;100280.38;;;23.82;52.75
7532;BME280;3807;49.030;8.714;2023-09-30T12:29:23;100269.81;;;23.72;53.51
7532;BME280;3807;49.030;8.714;2023-09-30T12:31:56;100275.84;;;24.08;51.44
7532;BME280;3807;49.030;8.714;2023-09-30T12:34:47;100273.84;;;24.23;52.23
7532;BME280;3807;49.030;8.714;2023-09-30T12:37:23;100271.63;;;24.30;50.30
7532;BME280;3807;49.030;8.714;2023-09-30T12:39:56;100280.09;;;24.44;50.62
7532;BME280;3807;49.030;8.714;2023-09-30T12:42:24;100279.97;;;24.46;51.65
7532;BME280;3807;49.030;8.714;2023-09-30T12:45:06;100282.94;;;24.53;51.08
7532;BME280;3807;49.030;8.714;2023-09-30T12:47:37;100275.72;;;24.45;51.82
7532;BME280;3807;49.030;8.714;2023-09-30T12:50:24;100278.19;;;24.58;50.11
7532;BME280;3807;49.030;8.714;2023-09-30T12:52:58;100272.16;;;24.68;50.54
7532;BME280;3807;49.030;8.714;2023-09-30T12:55:27;100280.31;;;24.75;49.47
7532;BME280;3807;49.030;8.714;2023-09-30T12:58:03;100277.97;;;24.83;49.48
7532;BME280;3807;49.030;8.714;2023-09-30T13:00:34;100261.94;;;24.99;48.63
7532;BME280;3807;49.030;8.714;2023-09-30T13:03:06;100255.81;;;25.11;49.49
7532;BME280;3807;49.030;8.714;2023-09-30T13:05:44;100254.81;;;25.35;49.62
7532;BME280;3807;49.030;8.714;2023-09-30T13:08:27;100238.19;;;25.36;48.36
7532;BME280;3807;49.030;8.714;2023-09-30T13:14:00;100237.97;;;25.39;47.81
7532;BME280;3807;49.030;8.714;2023-09-30T13:16:31;100230.81;;;25.41;48.52
7532;BME280;3807;49.030;8.714;2023-09-30T13:18:59;100234.97;;;25.43;47.90
7532;BME280;3807;49.030;8.714;2023-09-30T13:21:24;100224.78;;;25.40;48.63
7532;BME280;3807;49.030;8.714;2023-09-30T13:24:11;100234.41;;;25.40;48.07
7532;BME280;3807;49.030;8.714;2023-09-30T13:26:46;100235.06;;;25.53;47.66
7532;BME280;3807;49.030;8.714;2023-09-30T13:29:23;100233.66;;;25.49;47.96
7532;BME280;3807;49.030;8.714;2023-09-30T13:32:05;100230.75;;;25.63;46.59
7532;BME280;3807;49.030;8.714;2023-09-30T13:34:57;100244.69;;;25.74;48.04
7532;BME280;3807;49.030;8.714;2023-09-30T13:37:49;100251.47;;;25.65;47.35
7532;BME280;3807;49.030;8.714;2023-09-30T13:43:37;100240.97;;;25.76;46.84
7532;BME280;3807;49.030;8.714;2023-09-30T13:46:10;100235.44;;;25.70;47.89
7532;BME280;3807;49.030;8.714;2023-09-30T13:48:42;100232.19;;;25.88;45.39
7532;BME280;3807;49.030;8.714;2023-09-30T13:51:16;100228.69;;;25.99;45.45
7532;BME280;3807;49.030;8.714;2023-09-30T13:54:15;100231.03;;;26.02;46.22
7532;BME280;3807;49.030;8.714;2023-09-30T13:56:49;100224.69;;;25.95;46.55
7532;BME280;3807;49.030;8.714;2023-09-30T13:59:53;100217.91;;;25.93;46.30
7532;BME280;3807;49.030;8.714;2023-09-30T14:02:46;100210.66;;;25.96;46.56
7532;BME280;3807;49.030;8.714;2023-09-30T14:05:39;100214.16;;;26.06;45.53
7532;BME280;3807;49.030;8.714;2023-09-30T14:11:30;100206.97;;;25.99;45.84
7532;BME280;3807;49.030;8.714;2023-09-30T14:14:03;100205.09;;;26.10;44.70
7532;BME280;3807;49.030;8.714;2023-09-30T14:16:35;100206.19;;;26.08;46.12
7532;BME280;3807;49.030;8.714;2023-09-30T14:19:19;100207.03;;;26.08;45.74
7532;BME280;3807;49.030;8.714;2023-09-30T14:21:51;100207.47;;;26.13;45.87
7532;BME280;3807;49.030;8.714;2023-09-30T14:28:05;100207.59;;;26.12;45.67
7532;BME280;3807;49.030;8.714;2023-09-30T14:30:57;100195.38;;;26.12;45.64
7532;BME280;3807;49.030;8.714;2023-09-30T14:33:23;100191.03;;;26.23;43.31
7532;BME280;3807;49.030;8.714;2023-09-30T14:40:43;100190.84;;;26.14;45.53
7532;BME280;3807;49.030;8.714;2023-09-30T14:47:07;100186.88;;;26.20;44.77
7532;BME280;3807;49.030;8.714;2023-09-30T14:56:58;100190.47;;;26.19;45.38
7532;BME280;3807;49.030;8.714;2023-09-30T15:03:13;100190.22;;;26.32;45.30
7532;BME280;3807;49.030;8.714;2023-09-30T15:05:47;100189.03;;;26.36;44.96
7532;BME280;3807;49.030;8.714;2023-09-30T15:08:34;100187.25;;;26.36;44.62
7532;BME280;3807;49.030;8.714;2023-09-30T15:11:03;100196.50;;;26.20;46.14
7532;BME280;3807;49.030;8.714;2023-09-30T15:13:40;100184.53;;;26.17;44.77
7532;BME280;3807;49.030;8.714;2023-09-30T15:16:22;100187.44;;;26.24;45.00
7532;BME280;3807;49.030;8.714;2023-09-30T15:19:03;100183.56;;;26.18;45.08
7532;BME280;3807;49.030;8.714;2023-09-30T15:21:48;100181.53;;;26.22;45.17
7532;BME280;3807;49.030;8.714;2023-09-30T15:24:47;100182.63;;;26.19;44.84
7532;BME280;3807;49.030;8.714;2023-09-30T15:27:20;100181.97;;;26.27;44.95
7532;BME280;3807;49.030;8.714;2023-09-30T15:29:49;100180.44;;;26.24;45.19
7532;BME280;3807;49.030;8.714;2023-09-30T15:32:22;100183.00;;;26.14;45.25
7532;BME280;3807;49.030;8.714;2023-09-30T15:34:51;100177.66;;;26.16;45.26
7532;BME280;3807;49.030;8.714;2023-09-30T15:37:21;100177.97;;;26.32;45.06
7532;BME280;3807;49.030;8.714;2023-09-30T15:39:55;100187.19;;;26.27;45.30
7532;BME280;3807;49.030;8.714;2023-09-30T15:42:20;100178.38;;;26.28;44.24
7532;BME280;3807;49.030;8.714;2023-09-30T15:45:07;100182.22;;;26.24;44.94
7532;BME280;3807;49.030;8.714;2023-09-30T15:47:33;100186.47;;;26.25;45.21
7532;BME280;3807;49.030;8.714;2023-09-30T15:50:09;100181.09;;;26.17;45.40
7532;BME280;3807;49.030;8.714;2023-09-30T15:52:45;100181.91;;;26.17;44.88
7532;BME280;3807;49.030;8.714;2023-09-30T15:55:24;100172.03;;;26.21;45.15
7532;BME280;3807;49.030;8.714;2023-09-30T15:57:52;100182.22;;;26.24;45.60
7532;BME280;3807;49.030;8.714;2023-09-30T16:00:22;100186.31;;;26.17;46.24
7532;BME280;3807;49.030;8.714;2023-09-30T16:02:56;100185.28;;;26.08;46.38
7532;BME280;3807;49.030;8.714;2023-09-30T16:05:22;100177.91;;;26.13;46.00
7532;BME280;3807;49.030;8.714;2023-09-30T16:07:51;100182.69;;;26.08;46.10
7532;BME280;3807;49.030;8.714;2023-09-30T16:10:24;100186.72;;;26.12;45.69
7532;BME280;3807;49.030;8.714;2023-09-30T16:13:14;100182.44;;;26.11;45.82
7532;BME280;3807;49.030;8.714;2023-09-30T16:15:42;100184.53;;;26.17;45.57
7532;BME280;3807;49.030;8.714;2023-09-30T16:18:16;100188.47;;;26.11;46.00
7532;BME280;3807;49.030;8.714;2023-09-30T16:20:52;100188.09;;;26.16;45.62
7532;BME280;3807;49.030;8.714;2023-09-30T16:23:20;100185.59;;;26.14;45.80
7532;BME280;3807;49.030;8.714;2023-09-30T16:25:49;100178.88;;;26.12;45.50
7532;BME280;3807;49.030;8.714;2023-09-30T16:28:19;100179.81;;;26.11;45.47
7532;BME280;3807;49.030;8.714;2023-09-30T16:30:45;100182.00;;;26.06;45.92
7532;BME280;3807;49.030;8.714;2023-09-30T16:33:13;100175.41;;;26.02;45.48
7532;BME280;3807;49.030;8.714;2023-09-30T16:35:44;100181.69;;;25.99;45.56
7532;BME280;3807;49.030;8.714;2023-09-30T16:38:11;100185.94;;;26.00;45.64
7532;BME280;3807;49.030;8.714;2023-09-30T16:40:56;100183.84;;;25.94;46.17
7532;BME280;3807;49.030;8.714;2023-09-30T16:43:31;100196.06;;;25.94;45.59
7532;BME280;3807;49.030;8.714;2023-09-30T16:46:00;100194.69;;;25.89;46.25
7532;BME280;3807;49.030;8.714;2023-09-30T16:48:40;100195.66;;;25.88;46.23
7532;BME280;3807;49.030;8.714;2023-09-30T16:51:39;100197.34;;;25.78;46.35
7532;BME280;3807;49.030;8.714;2023-09-30T16:54:08;100196.75;;;25.75;46.44
7532;BME280;3807;49.030;8.714;2023-09-30T16:56:34;100196.75;;;25.75;46.44
7532;BME280;3807;49.030;8.714;2023-09-30T16:59:04;100208.75;;;25.77;46.42
7532;BME280;3807;49.030;8.714;2023-09-30T17:01:35;100204.44;;;25.76;46.11
7532;BME280;3807;49.030;8.714;2023-09-30T17:04:02;100202.47;;;25.69;45.95
7532;BME280;3807;49.030;8.714;2023-09-30T17:06:28;100203.31;;;25.69;46.26
7532;BME280;3807;49.030;8.714;2023-09-30T17:08:56;100197.91;;;25.61;46.39
7532;BME280;3807;49.030;8.714;2023-09-30T17:11:21;100203.13;;;25.61;46.53
7532;BME280;3807;49.030;8.714;2023-09-30T17:13:49;100207.91;;;25.56;45.62
7532;BME280;3807;49.030;8.714;2023-09-30T17:16:21;100209.91;;;25.52;46.72
7532;BME280;3807;49.030;8.714;2023-09-30T17:19:05;100204.00;;;25.50;46.72
7532;BME280;3807;49.030;8.714;2023-09-30T17:21:48;100206.72;;;25.49;46.63
7532;BME280;3807;49.030;8.714;2023-09-30T17:24:43;100211.88;;;25.39;46.90
7532;BME280;3807;49.030;8.714;2023-09-30T17:27:14;100201.94;;;25.33;47.02
7532;BME280;3807;49.030;8.714;2023-09-30T17:30:22;100206.56;;;25.29;47.11
7532;BME280;3807;49.030;8.714;2023-09-30T17:32:51;100203.88;;;25.19;47.21
7532;BME280;3807;49.030;8.714;2023-09-30T17:38:56;100195.94;;;25.10;47.42
7532;BME280;3807;49.030;8.714;2023-09-30T17:41:23;100193.84;;;25.04;47.35
7532;BME280;3807;49.030;8.714;2023-09-30T17:43:48;100196.78;;;24.99;47.51
7532;BME280;3807;49.030;8.714;2023-09-30T17:46:18;100198.12;;;24.93;47.57
7532;BME280;3807;49.030;8.714;2023-09-30T17:48:45;100197.53;;;24.90;47.44
7532;BME280;3807;49.030;8.714;2023-09-30T17:51:16;100193.50;;;24.86;47.27
7532;BME280;3807;49.030;8.714;2023-09-30T17:53:51;100200.03;;;24.80;47.51
7532;BME280;3807;49.030;8.714;2023-09-30T17:56:20;100203.84;;;24.76;47.53
7532;BME280;3807;49.030;8.714;2023-09-30T17:58:45;100205.12;;;24.70;47.86
7532;BME280;3807;49.030;8.714;2023-09-30T18:01:14;100216.75;;;24.66;47.82
7532;BME280;3807;49.030;8.714;2023-09-30T18:03:46;100219.72;;;24.62;48.26
7532;BME280;3807;49.030;8.714;2023-09-30T18:06:12;100217.22;;;24.60;47.98
7532;BME280;3807;49.030;8.714;2023-09-30T18:08:42;100218.53;;;24.55;48.15
7532;BME280;3807;49.030;8.714;2023-09-30T18:11:09;100220.53;;;24.51;48.02
7532;BME280;3807;49.030;8.714;2023-09-30T18:13:36;100224.31;;;24.47;47.87
7532;BME280;3807;49.030;8.714;2023-09-30T18:16:02;100226.22;;;24.45;47.93
7532;BME280;3807;49.030;8.714;2023-09-30T18:18:28;100224.28;;;24.36;48.39
7532;BME280;3807;49.030;8.714;2023-09-30T18:20:54;100229.63;;;24.34;48.16
7532;BME280;3807;49.030;8.714;2023-09-30T18:23:19;100223.94;;;24.29;48.29
7532;BME280;3807;49.030;8.714;2023-09-30T18:25:45;100230.53;;;24.22;48.26
7532;BME280;3807;49.030;8.714;2023-09-30T18:28:11;100230.91;;;24.17;48.68
7532;BME280;3807;49.030;8.714;2023-09-30T18:30:44;100233.50;;;24.17;48.76
7532;BME280;3807;49.030;8.714;2023-09-30T18:33:10;100231.13;;;24.14;48.24
7532;BME280;3807;49.030;8.714;2023-09-30T18:35:38;100235.84;;;24.09;48.74
7532;BME280;3807;49.030;8.714;2023-09-30T18:38:05;100240.44;;;24.06;48.83
7532;BME280;3807;49.030;8.714;2023-09-30T18:40:32;100240.56;;;24.04;48.60
7532;BME280;3807;49.030;8.714;2023-09-30T18:42:59;100239.97;;;24.00;48.31
7532;BME280;3807;49.030;8.714;2023-09-30T18:45:24;100247.19;;;23.97;48.70
7532;BME280;3807;49.030;8.714;2023-09-30T18:47:50;100253.66;;;23.91;48.80
7532;BME280;3807;49.030;8.714;2023-09-30T18:50:18;100245.47;;;23.85;48.69
7532;BME280;3807;49.030;8.714;2023-09-30T18:52:43;100256.00;;;23.83;49.07
7532;BME280;3807;49.030;8.714;2023-09-30T18:55:09;100246.41;;;23.72;48.86
7532;BME280;3807;49.030;8.714;2023-09-30T18:57:35;100251.81;;;23.69;48.96
7532;BME280;3807;49.030;8.714;2023-09-30T19:00:00;100244.97;;;23.68;49.06
7532;BME280;3807;49.030;8.714;2023-09-30T19:02:26;100251.31;;;23.64;49.13
7532;BME280;3807;49.030;8.714;2023-09-30T19:04:51;100248.09;;;23.61;49.21
7532;BME280;3807;49.030;8.714;2023-09-30T19:07:17;100248.41;;;23.56;49.36
7532;BME280;3807;49.030;8.714;2023-09-30T19:09:43;100247.72;;;23.54;49.26
7532;BME280;3807;49.030;8.714;2023-09-30T19:12:11;100254.31;;;23.47;49.41
7532;BME280;3807;49.030;8.714;2023-09-30T19:14:36;100253.44;;;23.46;49.46
7532;BME280;3807;49.030;8.714;2023-09-30T19:17:01;100253.78;;;23.42;49.66
7532;BME280;3807;49.030;8.714;2023-09-30T19:19:27;100255.69;;;23.40;49.68
7532;BME280;3807;49.030;8.714;2023-09-30T19:21:52;100252.38;;;23.38;49.67
7532;BME280;3807;49.030;8.714;2023-09-30T19:24:21;100241.34;;;23.34;49.83
7532;BME280;3807;49.030;8.714;2023-09-30T19:26:47;100248.41;;;23.32;50.05
7532;BME280;3807;49.030;8.714;2023-09-30T19:29:12;100240.97;;;23.27;49.92
7532;BME280;3807;49.030;8.714;2023-09-30T19:31:38;100253.97;;;23.27;49.96
7532;BME280;3807;49.030;8.714;2023-09-30T19:34:03;100256.06;;;23.22;49.97
7532;BME280;3807;49.030;8.714;2023-09-30T19:36:29;100251.91;;;23.20;50.00
7532;BME280;3807;49.030;8.714;2023-09-30T19:38:55;100255.66;;;23.16;50.15
7532;BME280;3807;49.030;8.714;2023-09-30T19:41:21;100245.50;;;23.13;50.17
7532;BME280;3807;49.030;8.714;2023-09-30T19:43:47;100252.75;;;23.08;50.25
7532;BME280;3807;49.030;8.714;2023-09-30T19:46:12;100251.25;;;23.05;50.32
7532;BME280;3807;49.030;8.714;2023-09-30T19:51:57;100253.44;;;22.98;50.39
7532;BME280;3807;49.030;8.714;2023-09-30T19:54:40;100266.63;;;22.95;50.55
7532;BME280;3807;49.030;8.714;2023-09-30T19:58:03;100261.94;;;22.88;50.56
7532;BME280;3807;49.030;8.714;2023-09-30T20:00:57;100255.53;;;22.80;50.67
7532;BME280;3807;49.030;8.714;2023-09-30T20:07:02;100269.41;;;22.79;51.12
7532;BME280;3807;49.030;8.714;2023-09-30T20:09:57;100258.31;;;22.77;51.33
7532;BME280;3807;49.030;8.714;2023-09-30T20:37:32;100247.84;;;22.15;52.94
7532;BME280;3807;49.030;8.714;2023-09-30T20:54:28;100254.78;;;21.75;53.96
7532;BME280;3807;49.030;8.714;2023-09-30T21:01:27;100248.34;;;21.68;54.01
7532;BME280;3807;49.030;8.714;2023-09-30T21:04:08;100258.28;;;21.61;54.07
7532;BME280;3807;49.030;8.714;2023-09-30T21:07:05;100254.66;;;21.63;53.82
7532;BME280;3807;49.030;8.714;2023-09-30T21:09:46;100248.84;;;21.60;53.76
7532;BME280;3807;49.030;8.714;2023-09-30T21:39:39;100270.25;;;21.08;55.01
7532;BME280;3807;49.030;8.714;2023-09-30T21:42:34;100279.31;;;21.01;55.35
7532;BME280;3807;49.030;8.714;2023-09-30T21:52:50;100292.28;;;20.86;55.73
7532;BME280;3807;49.030;8.714;2023-09-30T21:56:23;100284.06;;;20.80;55.84
7532;BME280;3807;49.030;8.714;2023-09-30T22:03:04;100287.94;;;20.73;56.03
7532;BME280;3807;49.030;8.714;2023-09-30T22:19:26;100291.19;;;20.46;56.17
7532;BME280;3807;49.030;8.714;2023-09-30T22:29:32;100290.94;;;20.36;56.41
7532;BME280;3807;49.030;8.714;2023-09-30T22:36:01;100289.88;;;20.25;56.56
7532;BME280;3807;49.030;8.714;2023-09-30T22:46:49;100282.72;;;20.14;56.35
7532;BME280;3807;49.030;8.714;2023-09-30T22:50:09;100290.66;;;20.11;56.71
7532;BME280;3807;49.030;8.714;2023-09-30T23:01:06;100285.63;;;19.93;56.95
7532;BME280;3807;49.030;8.714;2023-09-30T23:03:52;100298.56;;;19.93;57.02
7532;BME280;3807;49.030;8.714;2023-09-30T23:56:26;100270.16;;;19.30;57.40
